Time;durP1;ratioP1;P1;durP2;ratioP2;P2;SDS_P1;SDS_P2;PMS_P1;PMS_P2;Temp;Humidity;BMP_temperature;BMP_pressure;BME280_temperature;BME280_humidity;BME280_pressure;Samples;Min_cycle;Max_cycle;Signal;HPM_P1;HPM_P2
2022/09/10 03:01:24;;;;;;;3.75;0.17;;;15.70;99.90;;;;;;5796364;23;88885;-72
2022/09/10 03:03:53;;;;;;;1.50;0.20;;;15.70;99.90;;;;;;4876114;28;86461;-70
2022/09/10 03:06:20;;;;;;;2.25;0.20;;;15.70;99.90;;;;;;4876490;28;87036;-70
2022/09/10 03:08:47;;;;;;;1.92;0.25;;;15.70;99.90;;;;;;4878244;28;87035;-71
2022/09/10 03:11:15;;;;;;;1.23;0.30;;;15.70;99.80;;;;;;4879240;28;88626;-70
2022/09/10 03:13:45;;;;;;;1.40;0.20;;;15.60;99.90;;;;;;4879353;28;87904;-71
2022/09/10 03:16:13;;;;;;;2.05;0.13;;;15.60;99.90;;;;;;4877001;28;87380;-70
2022/09/10 03:18:40;;;;;;;1.95;0.20;;;15.70;99.80;;;;;;4872438;28;86211;-72
2022/09/10 03:21:15;;;;;;;3.45;0.20;;;15.60;99.90;;;;;;4877230;28;86619;-70
2022/09/10 03:23:43;;;;;;;2.03;0.17;;;15.70;99.90;;;;;;4876809;28;86871;-69
2022/09/10 03:26:09;;;;;;;5.57;0.38;;;15.70;99.90;;;;;;4879383;28;86752;-71
2022/09/10 03:28:36;;;;;;;1.23;0.20;;;15.70;99.90;;;;;;4878959;28;86026;-71
2022/09/10 03:31:06;;;;;;;1.75;0.15;;;15.60;99.90;;;;;;4879389;28;87353;-73
2022/09/10 03:33:32;;;;;;;;;;;15.50;99.90;;;;;;4877370;28;87467;-70
2022/09/10 03:35:58;;;;;;;0.70;0.17;;;15.50;99.90;;;;;;4878658;28;88028;-69
2022/09/10 03:38:24;;;;;;;0.68;0.10;;;15.50;99.90;;;;;;4878498;28;86421;-70
2022/09/10 03:40:51;;;;;;;1.10;0.63;;;15.40;99.90;;;;;;4878077;28;87750;-73
2022/09/10 03:43:18;;;;;;;1.27;0.20;;;15.30;99.90;;;;;;4880194;28;86497;-69
2022/09/10 03:45:44;;;;;;;0.88;0.20;;;15.20;99.90;;;;;;4879011;28;86253;-69
2022/09/10 03:48:10;;;;;;;1.05;0.30;;;15.30;99.90;;;;;;4878761;28;86806;-72
2022/09/10 03:50:36;;;;;;;0.82;0.20;;;15.30;99.90;;;;;;4871729;28;87613;-71
2022/09/10 03:53:02;;;;;;;0.60;0.10;;;15.40;99.90;;;;;;4861365;29;86448;-70
2022/09/10 03:55:29;;;;;;;1.63;0.20;;;15.30;99.90;;;;;;4872026;28;86529;-70
2022/09/10 03:57:56;;;;;;;3.40;0.20;;;15.40;99.90;;;;;;4871155;28;87504;-70
2022/09/10 04:00:21;;;;;;;1.75;0.10;;;15.30;99.90;;;;;;4870822;28;88871;-70
2022/09/10 04:02:47;;;;;;;2.22;0.30;;;15.20;99.90;;;;;;4870819;28;88854;-70
2022/09/10 04:05:13;;;;;;;2.03;0.20;;;15.10;99.90;;;;;;4878093;28;86881;-72
2022/09/10 04:07:38;;;;;;;3.95;0.20;;;15.10;99.90;;;;;;4872828;28;86841;-71
2022/09/10 04:10:04;;;;;;;3.60;0.70;;;15.20;99.90;;;;;;4872643;28;87168;-70
2022/09/10 04:12:30;;;;;;;1.40;0.20;;;15.20;99.90;;;;;;4884955;28;87087;-70
2022/09/10 04:14:56;;;;;;;1.75;0.38;;;15.20;99.90;;;;;;4877351;28;86702;-70
2022/09/10 04:17:23;;;;;;;1.92;0.40;;;15.00;99.90;;;;;;4879117;28;86017;-70
2022/09/10 04:19:50;;;;;;;2.95;0.40;;;15.10;99.90;;;;;;4876211;28;86562;-70
2022/09/10 04:22:15;;;;;;;1.40;0.25;;;15.20;99.90;;;;;;4878741;28;88217;-70
2022/09/10 04:24:41;;;;;;;0.70;0.20;;;15.20;99.90;;;;;;4877861;28;88002;-71
2022/09/10 04:27:07;;;;;;;2.25;0.25;;;15.10;99.90;;;;;;4878208;28;86305;-71
2022/09/10 04:29:32;;;;;;;3.30;0.50;;;14.90;99.90;;;;;;4877569;28;87241;-72
2022/09/10 04:31:58;;;;;;;2.40;0.50;;;14.80;99.90;;;;;;4876976;28;87023;-70
2022/09/10 04:34:24;;;;;;;2.15;0.60;;;14.80;99.90;;;;;;4877054;28;87055;-70
2022/09/10 04:36:50;;;;;;;2.05;0.40;;;14.70;99.90;;;;;;4877911;28;86647;-70
2022/09/10 04:39:16;;;;;;;5.25;0.32;;;14.80;99.90;;;;;;4876036;28;87706;-70
2022/09/10 04:41:42;;;;;;;2.10;0.30;;;14.70;99.90;;;;;;4876404;28;86463;-72
2022/09/10 04:44:08;;;;;;;3.47;0.68;;;14.60;99.90;;;;;;4878195;28;86719;-71
2022/09/10 04:46:35;;;;;;;2.13;0.30;;;14.80;99.90;;;;;;4878948;28;86327;-70
2022/09/10 04:49:01;;;;;;;2.90;0.30;;;14.80;99.90;;;;;;4877143;28;87710;-71
2022/09/10 04:51:26;;;;;;;3.58;0.40;;;14.90;99.90;;;;;;4877454;28;89123;-71
2022/09/10 04:53:53;;;;;;;4.13;0.40;;;15.00;99.90;;;;;;4878483;28;87090;-71
2022/09/10 04:56:20;;;;;;;1.75;0.30;;;14.90;99.90;;;;;;4878670;28;86749;-70
2022/09/10 04:58:47;;;;;;;2.90;0.32;;;14.90;99.90;;;;;;4869995;28;86819;-69
2022/09/10 05:01:13;;;;;;;1.02;0.30;;;14.90;99.90;;;;;;4877333;28;87059;-72
2022/09/10 05:03:38;;;;;;;1.73;0.20;;;15.00;99.90;;;;;;4872252;28;86928;-71
2022/09/10 05:06:04;;;;;;;1.15;0.20;;;15.00;99.90;;;;;;4876733;28;88290;-70
2022/09/10 05:08:30;;;;;;;2.00;0.30;;;14.90;99.90;;;;;;4876939;28;87178;-71
2022/09/10 05:10:56;;;;;;;1.02;0.10;;;14.90;99.90;;;;;;4876505;28;87862;-70
2022/09/10 05:13:23;;;;;;;1.55;0.55;;;14.90;99.90;;;;;;4875343;28;87719;-69
2022/09/10 05:15:49;;;;;;;0.90;0.20;;;14.90;99.90;;;;;;4873941;28;86842;-70
2022/09/10 05:18:15;;;;;;;2.08;0.10;;;14.90;99.90;;;;;;4877986;28;86641;-69
2022/09/10 05:20:43;;;;;;;0.88;0.20;;;14.90;99.90;;;;;;4874188;28;86691;-70
2022/09/10 05:23:09;;;;;;;2.63;0.15;;;14.90;99.90;;;;;;4878723;28;86345;-70
2022/09/10 05:25:36;;;;;;;2.03;0.20;;;15.00;99.90;;;;;;4877036;28;86570;-70
2022/09/10 05:28:04;;;;;;;1.25;0.00;;;15.00;99.90;;;;;;4878447;28;86577;-71
2022/09/10 05:30:31;;;;;;;0.60;0.10;;;15.00;99.90;;;;;;4878005;28;86954;-70
2022/09/10 05:32:58;;;;;;;3.63;0.20;;;14.90;99.90;;;;;;4877199;28;86605;-70
2022/09/10 05:35:24;;;;;;;3.80;0.22;;;14.90;99.90;;;;;;4876563;28;86682;-69
2022/09/10 05:37:50;;;;;;;2.60;0.20;;;14.90;99.90;;;;;;4877434;28;87952;-71
2022/09/10 05:40:15;;;;;;;2.90;0.40;;;15.10;99.90;;;;;;4878834;28;86917;-71
2022/09/10 05:42:41;;;;;;;0.90;0.20;;;15.10;99.90;;;;;;4880539;28;87061;-70
2022/09/10 05:45:09;;;;;;;1.30;0.20;;;15.10;99.90;;;;;;4881693;28;86637;-70
2022/09/10 05:47:36;;;;;;;3.35;0.30;;;15.20;99.90;;;;;;4881100;28;86681;-70
2022/09/10 05:50:02;;;;;;;1.25;0.30;;;15.20;99.90;;;;;;4876698;28;86960;-72
2022/09/10 05:52:29;;;;;;;3.03;0.30;;;15.30;99.90;;;;;;4879089;28;87370;-70
2022/09/10 05:54:55;;;;;;;2.13;0.52;;;15.30;99.90;;;;;;4878890;28;86351;-71
2022/09/10 05:57:21;;;;;;;7.05;1.55;;;15.30;99.90;;;;;;4878656;28;86799;-71
2022/09/10 05:59:46;;;;;;;4.97;1.10;;;15.20;99.90;;;;;;4880681;28;87105;-70
2022/09/10 06:02:17;;;;;;;3.70;0.77;;;15.30;99.90;;;;;;4879665;28;87205;-69
2022/09/10 06:04:43;;;;;;;1.95;0.32;;;15.40;99.90;;;;;;4878964;28;86657;-70
2022/09/10 06:07:09;;;;;;;2.50;0.50;;;15.40;99.90;;;;;;4877668;28;86579;-72
2022/09/10 06:09:34;;;;;;;2.60;0.40;;;15.40;99.90;;;;;;4878617;28;86912;-70
2022/09/10 06:12:00;;;;;;;1.15;0.20;;;15.50;99.90;;;;;;4881310;28;86977;-73
2022/09/10 06:14:26;;;;;;;1.83;0.32;;;15.50;99.90;;;;;;4881190;28;86847;-70
2022/09/10 06:16:53;;;;;;;0.95;0.32;;;15.50;99.90;;;;;;4876025;28;87618;-70
2022/09/10 06:19:20;;;;;;;1.23;0.20;;;15.70;99.90;;;;;;4880378;28;86167;-72
2022/09/10 06:21:46;;;;;;;0.95;0.30;;;15.80;99.90;;;;;;4879182;28;86357;-71
2022/09/10 06:24:12;;;;;;;1.25;0.13;;;15.80;99.90;;;;;;4879453;28;86373;-72
2022/09/10 06:26:38;;;;;;;3.17;0.10;;;15.90;99.90;;;;;;4873740;28;89551;-70
2022/09/10 06:29:04;;;;;;;0.60;0.20;;;15.90;99.90;;;;;;4878395;28;87084;-76
2022/09/10 06:31:30;;;;;;;0.68;0.20;;;15.90;99.90;;;;;;4880827;28;86805;-72
2022/09/10 06:33:55;;;;;;;1.40;0.22;;;16.00;99.90;;;;;;4880480;28;86314;-73
2022/09/10 06:36:21;;;;;;;1.17;0.13;;;16.00;99.90;;;;;;4880133;28;87414;-74
2022/09/10 06:38:48;;;;;;;1.33;0.20;;;16.00;99.90;;;;;;4877609;28;88089;-73
2022/09/10 06:41:15;;;;;;;2.45;0.20;;;16.10;99.90;;;;;;4873589;28;86682;-74
2022/09/10 06:43:42;;;;;;;2.72;0.40;;;16.10;99.90;;;;;;4879965;28;85565;-73
2022/09/10 06:46:15;;;;;;;0.98;0.20;;;16.20;99.90;;;;;;4879182;28;87639;-73
2022/09/10 06:48:41;;;;;;;1.35;0.20;;;16.20;99.90;;;;;;4879843;28;87456;-73
2022/09/10 06:51:09;;;;;;;1.15;0.28;;;16.20;99.90;;;;;;4877468;28;87276;-75
2022/09/10 06:53:36;;;;;;;1.33;0.30;;;16.30;99.90;;;;;;4878223;28;86281;-74
2022/09/10 06:56:04;;;;;;;3.05;0.20;;;16.20;99.90;;;;;;4877625;28;87703;-75
2022/09/10 06:58:33;;;;;;;0.98;0.30;;;16.20;99.90;;;;;;4877844;28;87066;-73
2022/09/10 07:01:06;;;;;;;1.42;0.28;;;16.20;99.90;;;;;;4878239;28;86983;-73
2022/09/10 07:03:32;;;;;;;1.92;0.32;;;16.20;99.90;;;;;;4877806;28;87077;-73
2022/09/10 07:06:05;;;;;;;1.35;0.20;;;16.20;99.90;;;;;;4877736;28;86498;-74
2022/09/10 07:08:31;;;;;;;2.97;0.28;;;16.20;99.90;;;;;;4879192;28;86942;-72
2022/09/10 07:11:03;;;;;;;2.00;0.20;;;16.10;99.90;;;;;;4872426;28;86815;-73
2022/09/10 07:13:30;;;;;;;0.75;0.20;;;16.10;99.90;;;;;;4867784;28;87484;-73
2022/09/10 07:15:56;;;;;;;2.33;0.17;;;16.20;99.90;;;;;;4872020;28;89449;-73
2022/09/10 07:18:23;;;;;;;1.42;0.38;;;16.20;99.90;;;;;;4872831;28;87265;-73
2022/09/10 07:20:48;;;;;;;0.75;0.20;;;16.10;99.90;;;;;;4879929;28;86936;-74
2022/09/10 07:23:16;;;;;;;1.77;0.20;;;16.00;99.90;;;;;;4875846;28;86804;-72
2022/09/10 07:25:42;;;;;;;1.00;0.20;;;16.10;99.90;;;;;;4877569;28;87306;-72
2022/09/10 07:28:12;;;;;;;2.75;0.20;;;16.30;99.90;;;;;;4878617;28;86934;-73
2022/09/10 07:30:42;;;;;;;3.65;0.30;;;16.20;99.90;;;;;;4880121;28;87511;-74
2022/09/10 07:33:09;;;;;;;0.75;0.20;;;16.20;99.90;;;;;;4876768;28;86024;-72
2022/09/10 07:35:37;;;;;;;2.70;0.43;;;16.20;99.90;;;;;;4877137;28;87046;-74
2022/09/10 07:38:03;;;;;;;2.00;0.30;;;16.20;99.90;;;;;;4877457;28;87052;-73
2022/09/10 07:40:31;;;;;;;1.33;0.20;;;16.30;99.90;;;;;;4877635;28;87987;-73
2022/09/10 07:42:58;;;;;;;5.78;0.20;;;16.50;99.90;;;;;;4877519;28;86882;-74
2022/09/10 07:45:24;;;;;;;5.22;0.30;;;16.80;99.90;;;;;;4876298;28;87336;-72
2022/09/10 07:47:50;;;;;;;2.00;0.20;;;16.90;99.90;;;;;;4875381;28;86983;-72
2022/09/10 07:50:18;;;;;;;1.65;0.45;;;17.00;99.90;;;;;;4873231;28;86723;-72
2022/09/10 07:52:44;;;;;;;1.00;0.20;;;16.90;99.90;;;;;;4876922;28;86829;-72
2022/09/10 07:55:09;;;;;;;2.03;0.30;;;16.90;99.90;;;;;;4878116;28;87492;-72
2022/09/10 07:57:39;;;;;;;0.90;0.20;;;16.90;99.90;;;;;;4870261;28;87974;-75
2022/09/10 08:00:11;;;;;;;3.50;0.38;;;16.90;99.90;;;;;;4876935;28;86713;-72
2022/09/10 08:02:38;;;;;;;1.08;0.30;;;16.90;99.90;;;;;;4875621;28;87412;-73
2022/09/10 08:05:04;;;;;;;1.52;0.30;;;17.00;99.90;;;;;;4874295;28;88129;-73
2022/09/10 08:07:30;;;;;;;2.25;0.30;;;17.10;99.90;;;;;;4874320;28;87720;-74
2022/09/10 08:09:56;;;;;;;0.80;0.30;;;17.20;99.90;;;;;;4876572;28;86208;-73
2022/09/10 08:12:24;;;;;;;1.33;0.30;;;17.40;99.90;;;;;;4874292;28;87034;-73
2022/09/10 08:14:51;;;;;;;2.60;0.30;;;17.60;99.80;;;;;;4872046;28;89066;-73
2022/09/10 08:17:17;;;;;;;2.05;0.25;;;17.60;99.30;;;;;;4876369;28;87453;-73
2022/09/10 08:19:43;;;;;;;1.45;0.30;;;17.70;98.70;;;;;;4875513;28;86377;-74
2022/09/10 08:22:09;;;;;;;1.10;0.30;;;17.80;98.00;;;;;;4874344;28;85615;-74
2022/09/10 08:24:35;;;;;;;2.20;0.20;;;17.60;97.30;;;;;;4875333;28;87782;-73
2022/09/10 08:27:01;;;;;;;1.33;0.22;;;17.70;97.60;;;;;;4878234;28;87430;-71
2022/09/10 08:29:27;;;;;;;0.80;0.30;;;17.60;97.90;;;;;;4880518;28;88554;-73
2022/09/10 08:31:53;;;;;;;1.10;0.30;;;17.80;98.50;;;;;;4876618;28;86947;-73
2022/09/10 08:34:19;;;;;;;1.55;0.30;;;18.00;98.10;;;;;;4877480;28;87291;-71
2022/09/10 08:36:45;;;;;;;1.30;0.20;;;18.20;96.70;;;;;;4873344;28;87412;-74
2022/09/10 08:39:12;;;;;;;2.15;0.30;;;18.30;96.30;;;;;;4876552;28;86676;-73
2022/09/10 08:41:37;;;;;;;0.88;0.20;;;18.40;95.50;;;;;;4873658;28;87791;-71
2022/09/10 08:44:09;;;;;;;1.13;0.25;;;17.90;96.40;;;;;;4874911;28;87261;-71
2022/09/10 08:46:41;;;;;;;1.50;0.30;;;17.80;96.60;;;;;;4878426;28;86651;-71
2022/09/10 08:49:10;;;;;;;2.75;0.40;;;17.90;96.50;;;;;;4875832;28;86760;-70
2022/09/10 08:51:49;;;;;;;1.80;0.32;;;18.00;95.80;;;;;;4876850;28;87012;-71
2022/09/10 08:54:26;;;;;;;1.77;0.40;;;17.70;96.50;;;;;;4875198;28;88170;-69
2022/09/10 08:56:57;;;;;;;2.45;0.30;;;17.80;96.80;;;;;;4872541;28;87899;-70
2022/09/10 08:59:23;;;;;;;1.48;0.30;;;17.80;96.10;;;;;;4878871;28;86271;-70
2022/09/10 09:02:10;;;;;;;2.05;0.68;;;18.00;96.70;;;;;;4877255;28;87738;-70
2022/09/10 09:04:51;;;;;;;0.63;0.13;;;18.20;96.10;;;;;;4876812;28;87391;-69
2022/09/10 09:07:19;;;;;;;1.80;0.30;;;18.40;95.10;;;;;;4877192;28;86990;-70
2022/09/10 09:09:51;;;;;;;1.20;0.50;;;18.50;95.10;;;;;;4874710;28;86359;-71
2022/09/10 09:12:32;;;;;;;27.70;6.47;;;18.80;93.80;;;;;;4879924;28;85476;-70
2022/09/10 09:15:14;;;;;;;5.45;1.00;;;19.10;94.10;;;;;;4875438;28;87310;-71
2022/09/10 09:18:09;;;;;;;2.05;0.35;;;19.70;92.70;;;;;;4882227;28;86349;-70
2022/09/10 09:20:47;;;;;;;1.45;0.40;;;19.80;90.60;;;;;;4876383;28;87285;-70
2022/09/10 09:23:18;;;;;;;1.05;0.10;;;20.20;89.90;;;;;;4881542;28;86876;-70
2022/09/10 09:25:57;;;;;;;1.17;0.40;;;20.40;85.30;;;;;;4879394;28;88323;-70
2022/09/10 09:28:48;;;;;;;0.80;0.40;;;20.60;88.80;;;;;;4879435;28;87112;-70
2022/09/10 09:31:27;;;;;;;1.40;0.40;;;20.90;84.90;;;;;;4875660;28;86831;-71
2022/09/10 09:33:59;;;;;;;1.23;0.28;;;20.80;84.00;;;;;;4881035;28;86557;-70
2022/09/10 09:36:31;;;;;;;1.75;0.47;;;20.70;84.10;;;;;;4877696;28;86942;-70
2022/09/10 09:38:56;;;;;;;1.10;0.40;;;20.50;84.60;;;;;;4878109;28;87001;-71
2022/09/10 09:41:29;;;;;;;2.13;0.40;;;20.20;85.20;;;;;;4879904;28;86933;-70
2022/09/10 09:44:28;;;;;;;1.55;0.47;;;20.00;86.40;;;;;;4879411;28;86982;-69
2022/09/10 09:46:55;;;;;;;2.13;0.32;;;19.80;87.00;;;;;;4875430;28;90230;-71
2022/09/10 09:49:22;;;;;;;1.00;0.30;;;19.80;86.60;;;;;;4881028;28;87966;-72
2022/09/10 09:51:50;;;;;;;0.57;0.20;;;19.70;86.90;;;;;;4880910;28;87170;-70
2022/09/10 09:54:24;;;;;;;1.35;0.25;;;19.60;87.50;;;;;;4880227;28;87033;-71
2022/09/10 09:56:53;;;;;;;1.95;0.52;;;19.50;88.60;;;;;;4879784;28;87186;-72
2022/09/10 09:59:29;;;;;;;0.80;0.20;;;19.60;89.40;;;;;;4880071;28;86431;-70
2022/09/10 10:02:04;;;;;;;0.60;0.20;;;19.60;88.40;;;;;;4880020;28;86915;-70
2022/09/10 10:04:30;;;;;;;0.88;0.25;;;19.80;87.30;;;;;;4875237;28;86013;-69
2022/09/10 10:06:58;;;;;;;1.25;0.20;;;19.80;88.20;;;;;;4878660;28;87712;-70
2022/09/10 10:09:28;;;;;;;1.45;0.50;;;19.70;86.40;;;;;;4879462;28;87001;-70
2022/09/10 10:12:08;;;;;;;2.90;0.57;;;19.60;86.90;;;;;;4880038;28;87347;-70
2022/09/10 10:14:38;;;;;;;3.10;0.30;;;19.20;89.00;;;;;;4879603;28;88099;-71
2022/09/10 10:17:23;;;;;;;1.08;0.63;;;19.20;90.40;;;;;;4880372;28;86819;-69
2022/09/10 10:20:16;;;;;;;1.42;0.30;;;19.20;90.00;;;;;;4876075;28;86434;-70
2022/09/10 10:22:44;;;;;;;1.50;0.30;;;19.40;89.70;;;;;;4876523;28;86913;-71
2022/09/10 10:25:46;;;;;;;1.38;0.40;;;19.70;90.20;;;;;;4869339;28;86399;-70
2022/09/10 10:28:22;;;;;;;1.20;0.57;;;19.80;87.60;;;;;;4876214;28;86837;-70
2022/09/10 10:30:58;;;;;;;3.22;0.20;;;20.00;90.00;;;;;;4879187;28;87038;-71
2022/09/10 10:33:30;;;;;;;;;;;20.30;87.20;;;;;;4879594;28;86758;-69
2022/09/10 10:36:14;;;;;;;1.17;0.35;;;20.60;88.40;;;;;;4881040;28;86732;-71
2022/09/10 10:39:05;;;;;;;2.65;0.30;;;20.90;85.10;;;;;;4877762;28;88109;-70
2022/09/10 10:41:52;;;;;;;1.30;0.43;;;21.00;84.10;;;;;;4879177;28;87899;-71
2022/09/10 10:44:26;;;;;;;1.10;0.32;;;20.90;83.70;;;;;;4874167;28;86865;-70
2022/09/10 10:47:18;;;;;;;2.13;0.50;;;20.90;83.90;;;;;;4877495;28;86693;-69
2022/09/10 10:49:51;;;;;;;1.67;0.40;;;20.90;83.60;;;;;;4874484;28;88241;-69
2022/09/10 10:52:25;;;;;;;1.88;0.47;;;20.80;83.90;;;;;;4879590;28;86901;-70
2022/09/10 10:55:22;;;;;;;1.45;0.50;;;21.20;84.10;;;;;;4880723;28;87064;-70
2022/09/10 10:58:06;;;;;;;2.60;0.40;;;21.60;81.40;;;;;;4880441;28;86011;-70
2022/09/10 11:00:58;;;;;;;2.25;0.90;;;21.80;80.60;;;;;;4886526;28;87263;-70
2022/09/10 11:04:03;;;;;;;3.63;0.57;;;22.00;79.10;;;;;;4874248;28;88583;-71
2022/09/10 11:06:41;;;;;;;1.67;0.45;;;22.30;79.20;;;;;;4880242;28;87939;-71
2022/09/10 11:09:26;;;;;;;0.73;0.50;;;22.70;80.40;;;;;;4887647;28;87127;-69
2022/09/10 11:12:14;;;;;;;1.30;0.40;;;23.00;76.00;;;;;;4882871;28;86622;-70
2022/09/10 11:14:47;;;;;;;2.00;0.30;;;22.70;73.30;;;;;;4886114;28;86699;-69
2022/09/10 11:17:33;;;;;;;1.10;0.30;;;22.30;74.00;;;;;;4879505;28;87520;-70
2022/09/10 11:20:14;;;;;;;2.67;0.50;;;22.10;76.40;;;;;;4879983;28;87067;-71
2022/09/10 11:22:47;;;;;;;1.45;0.50;;;22.30;77.00;;;;;;4879311;28;87319;-70
2022/09/10 11:25:27;;;;;;;0.88;0.47;;;22.50;78.20;;;;;;4874504;28;86301;-70
2022/09/10 11:28:08;;;;;;;1.80;0.43;;;22.80;73.70;;;;;;4876128;28;87104;-69
2022/09/10 11:30:37;;;;;;;1.42;0.43;;;23.00;74.10;;;;;;4876872;28;88530;-70
2022/09/10 11:33:22;;;;;;;0.95;0.40;;;23.30;72.40;;;;;;4872737;28;88216;-70
2022/09/10 11:36:11;;;;;;;1.70;0.40;;;23.50;71.30;;;;;;4875155;28;87336;-70
2022/09/10 11:39:15;;;;;;;2.17;0.68;;;23.80;71.30;;;;;;4875871;28;86860;-70
2022/09/10 11:41:44;;;;;;;10.15;4.13;;;24.10;69.00;;;;;;4871685;28;86346;-70
2022/09/10 11:44:16;;;;;;;1.70;0.35;;;23.20;69.60;;;;;;4870002;28;87754;-69
2022/09/10 11:46:55;;;;;;;0.93;0.40;;;21.90;68.70;;;;;;4870501;28;86445;-69
2022/09/10 11:49:30;;;;;;;2.38;0.47;;;21.30;70.90;;;;;;4877343;28;86671;-70
2022/09/10 11:51:55;;;;;;;1.38;0.50;;;21.10;70.90;;;;;;4878540;28;86341;-70
2022/09/10 11:54:29;;;;;;;1.02;0.13;;;20.40;75.50;;;;;;4879098;28;87046;-70
2022/09/10 11:57:05;;;;;;;1.15;0.30;;;19.70;78.00;;;;;;4876961;28;87506;-69
2022/09/10 12:00:01;;;;;;;2.28;0.30;;;18.90;78.10;;;;;;4875417;28;87901;-69
2022/09/10 12:02:48;;;;;;;3.22;0.43;;;18.40;79.20;;;;;;4876327;28;87023;-70
2022/09/10 12:05:29;;;;;;;3.40;0.30;;;18.30;79.00;;;;;;4879997;28;87489;-70
2022/09/10 12:08:18;;;;;;;1.60;0.20;;;18.20;80.50;;;;;;4874218;28;86933;-70
2022/09/10 12:11:06;;;;;;;2.53;0.10;;;18.30;79.60;;;;;;4877482;28;86540;-71
2022/09/10 12:13:37;;;;;;;2.03;0.35;;;18.40;79.40;;;;;;4877537;28;87014;-70
2022/09/10 12:16:24;;;;;;;1.55;0.40;;;18.30;80.80;;;;;;4872940;28;87128;-70
2022/09/10 12:18:53;;;;;;;1.38;0.30;;;18.20;82.80;;;;;;4872753;28;87204;-70
2022/09/10 12:21:26;;;;;;;1.38;0.30;;;18.50;82.90;;;;;;4879300;28;87054;-70
2022/09/10 12:23:53;;;;;;;4.60;0.30;;;19.00;81.50;;;;;;4877385;28;86399;-70
2022/09/10 12:26:20;;;;;;;1.52;0.20;;;18.90;81.50;;;;;;4876415;28;88281;-69
2022/09/10 12:28:51;;;;;;;1.23;0.40;;;18.80;82.70;;;;;;4879326;28;87177;-69
2022/09/10 12:31:19;;;;;;;1.38;0.30;;;19.10;81.10;;;;;;4877358;28;87590;-69
2022/09/10 12:33:44;;;;;;;2.17;0.47;;;19.30;81.50;;;;;;4875169;28;87129;-70
2022/09/10 12:36:13;;;;;;;1.27;0.30;;;19.60;80.50;;;;;;4876276;28;87426;-69
2022/09/10 12:38:47;;;;;;;1.55;0.40;;;19.70;79.30;;;;;;4876957;28;87650;-69
2022/09/10 12:41:22;;;;;;;1.13;0.20;;;19.50;79.20;;;;;;4874229;28;87013;-70
2022/09/10 12:43:47;;;;;;;1.13;0.35;;;19.50;80.50;;;;;;4884880;28;86225;-70
2022/09/10 12:46:13;;;;;;;2.85;0.30;;;19.40;81.60;;;;;;4876952;28;86617;-69
2022/09/10 12:48:54;;;;;;;1.42;0.40;;;19.10;84.70;;;;;;4872874;28;87509;-70
2022/09/10 12:51:22;;;;;;;2.40;0.22;;;18.70;86.70;;;;;;4878045;28;87697;-70
2022/09/10 12:53:54;;;;;;;1.00;0.50;;;18.90;87.20;;;;;;4882435;28;86752;-70
2022/09/10 12:56:28;;;;;;;2.10;0.30;;;18.90;85.30;;;;;;4880258;28;86618;-69
2022/09/10 12:59:28;;;;;;;2.58;0.20;;;18.90;87.10;;;;;;4879034;28;86779;-70
2022/09/10 13:01:54;;;;;;;2.38;0.40;;;18.70;88.10;;;;;;4860789;28;87458;-69
2022/09/10 13:04:23;;;;;;;2.22;0.40;;;18.40;90.00;;;;;;4883653;28;86830;-70
2022/09/10 13:06:52;;;;;;;1.63;0.40;;;18.30;90.50;;;;;;4883382;28;86691;-70
2022/09/10 13:09:38;;;;;;;2.58;0.50;;;18.20;90.60;;;;;;4883203;28;86347;-69
2022/09/10 13:12:19;;;;;;;1.17;0.38;;;18.30;91.60;;;;;;4880122;28;86662;-71
2022/09/10 13:14:49;;;;;;;1.88;0.47;;;18.20;91.10;;;;;;4884841;28;86941;-70
2022/09/10 13:17:46;;;;;;;1.58;0.32;;;18.10;91.50;;;;;;4884150;28;88160;-71
2022/09/10 13:20:21;;;;;;;2.50;0.40;;;18.20;92.70;;;;;;4871120;28;88528;-70
2022/09/10 13:23:08;;;;;;;4.22;0.30;;;17.90;93.30;;;;;;4884138;28;86794;-70
2022/09/10 13:25:38;;;;;;;1.42;0.40;;;17.70;93.10;;;;;;4881164;28;86791;-70
2022/09/10 13:28:29;;;;;;;2.47;0.28;;;17.40;93.60;;;;;;4882192;28;87342;-70
2022/09/10 13:31:17;;;;;;;2.42;0.20;;;17.70;94.70;;;;;;4878921;28;87705;-71
2022/09/10 13:33:49;;;;;;;3.30;0.35;;;17.90;94.60;;;;;;4875338;28;87425;-71
2022/09/10 13:36:52;;;;;;;3.72;0.57;;;18.10;94.00;;;;;;4884376;28;86043;-71
2022/09/10 13:39:39;;;;;;;2.30;0.40;;;18.00;93.40;;;;;;4882868;28;87045;-72
2022/09/10 13:42:07;;;;;;;2.90;0.50;;;17.90;94.10;;;;;;4883757;28;86704;-72
2022/09/10 13:44:46;;;;;;;3.75;0.60;;;18.10;94.50;;;;;;4883521;28;88142;-70
2022/09/10 13:47:17;;;;;;;2.25;0.20;;;18.00;95.30;;;;;;4884183;28;86316;-70
2022/09/10 13:49:56;;;;;;;2.20;0.60;;;18.20;94.70;;;;;;4884461;28;87735;-70
2022/09/10 13:52:44;;;;;;;1.90;0.30;;;18.20;93.80;;;;;;4884669;28;87037;-71
2022/09/10 13:55:20;;;;;;;4.28;0.20;;;17.70;94.70;;;;;;4880026;28;86945;-71
2022/09/10 13:57:48;;;;;;;1.55;0.25;;;17.80;95.50;;;;;;4883471;28;86431;-71
2022/09/10 14:00:25;;;;;;;1.70;0.30;;;17.70;94.20;;;;;;4878656;28;87449;-70
2022/09/10 14:02:53;;;;;;;1.10;0.20;;;17.70;93.80;;;;;;4874686;28;86974;-70
2022/09/10 14:05:27;;;;;;;1.30;0.22;;;18.00;92.80;;;;;;4879321;28;86924;-72
2022/09/10 14:08:06;;;;;;;1.60;0.30;;;18.10;92.40;;;;;;4880277;28;86469;-70
2022/09/10 14:10:35;;;;;;;1.75;0.40;;;18.30;91.70;;;;;;4872328;28;89118;-71
2022/09/10 14:13:01;;;;;;;1.60;0.32;;;17.90;91.90;;;;;;4879490;28;87955;-72
2022/09/10 14:15:35;;;;;;;2.78;0.10;;;17.70;94.00;;;;;;4879365;28;86891;-71
2022/09/10 14:18:01;;;;;;;1.45;0.40;;;17.60;93.20;;;;;;4879514;28;86517;-70
2022/09/10 14:20:30;;;;;;;1.38;0.20;;;17.30;93.90;;;;;;4875651;28;86513;-71
2022/09/10 14:23:02;;;;;;;3.35;0.40;;;17.20;94.30;;;;;;4879999;28;87810;-71
2022/09/10 14:25:37;;;;;;;0.90;0.20;;;17.30;93.60;;;;;;4879428;28;86907;-71
2022/09/10 14:28:15;;;;;;;1.88;0.30;;;17.30;93.60;;;;;;4879678;28;86234;-71
2022/09/10 14:30:42;;;;;;;1.50;0.28;;;17.30;93.00;;;;;;4880529;28;87276;-71
2022/09/10 14:33:25;;;;;;;2.22;0.60;;;17.60;92.00;;;;;;4878853;28;86940;-71
2022/09/10 14:35:52;;;;;;;1.30;0.38;;;17.70;91.20;;;;;;4877854;28;88078;-71
2022/09/10 14:38:33;;;;;;;2.80;0.30;;;17.90;91.80;;;;;;4879778;28;86698;-72
2022/09/10 14:41:01;;;;;;;1.88;0.30;;;18.00;92.30;;;;;;4878060;28;87661;-71
2022/09/10 14:43:36;;;;;;;3.33;0.28;;;17.90;92.60;;;;;;4876411;28;86917;-71
2022/09/10 14:46:06;;;;;;;1.80;0.22;;;17.90;93.10;;;;;;4880003;28;86371;-72
2022/09/10 14:49:03;;;;;;;1.92;0.40;;;18.00;94.30;;;;;;4878019;28;87053;-70
2022/09/10 14:51:29;;;;;;;1.70;0.38;;;18.30;93.60;;;;;;4879800;28;87822;-70
2022/09/10 14:53:57;;;;;;;2.95;0.20;;;18.50;91.30;;;;;;4879412;28;86300;-71
2022/09/10 14:56:29;;;;;;;3.72;0.30;;;18.50;91.30;;;;;;4880508;28;86960;-71
2022/09/10 14:59:13;;;;;;;2.70;0.22;;;18.60;90.90;;;;;;4880120;28;86314;-71
2022/09/10 15:01:44;;;;;;;1.20;0.40;;;18.60;90.70;;;;;;4870706;28;88203;-71
2022/09/10 15:04:15;;;;;;;2.10;0.30;;;18.60;90.60;;;;;;4877594;28;87857;-70
2022/09/10 15:06:42;;;;;;;1.45;0.30;;;18.50;91.00;;;;;;4880179;28;86709;-71
2022/09/10 15:09:13;;;;;;;1.58;0.43;;;18.70;91.30;;;;;;4877787;28;86703;-71
2022/09/10 15:12:05;;;;;;;0.90;0.20;;;18.70;90.50;;;;;;4865908;28;86660;-70
2022/09/10 15:14:32;;;;;;;1.23;0.30;;;18.90;90.00;;;;;;4853968;28;87081;-71
2022/09/10 15:16:58;;;;;;;1.20;0.32;;;19.00;90.10;;;;;;4880133;28;86351;-71
2022/09/10 15:19:24;;;;;;;1.50;0.30;;;19.00;87.50;;;;;;4880572;28;85896;-70
2022/09/10 15:21:50;;;;;;;1.58;0.20;;;18.70;89.70;;;;;;4878459;28;86880;-71
2022/09/10 15:24:21;;;;;;;0.82;0.30;;;18.30;90.60;;;;;;4879359;28;86638;-71
2022/09/10 15:26:47;;;;;;;0.90;0.25;;;18.20;91.20;;;;;;4878003;28;87373;-72
2022/09/10 15:29:14;;;;;;;1.90;0.22;;;17.90;92.30;;;;;;4875852;28;87022;-71
2022/09/10 15:31:42;;;;;;;1.65;0.30;;;17.70;92.10;;;;;;4877412;28;87897;-71
2022/09/10 15:34:09;;;;;;;2.40;0.45;;;17.70;92.70;;;;;;4874833;28;86697;-71
2022/09/10 15:36:37;;;;;;;1.67;0.20;;;18.10;93.70;;;;;;4879220;28;87488;-71
2022/09/10 15:39:04;;;;;;;0.77;0.20;;;18.50;91.90;;;;;;4880130;28;87019;-70
2022/09/10 15:41:30;;;;;;;1.17;0.20;;;18.60;93.00;;;;;;4879774;28;87416;-71
2022/09/10 15:43:57;;;;;;;1.38;0.35;;;18.70;91.80;;;;;;4877582;28;87061;-70
2022/09/10 15:46:23;;;;;;;1.45;0.40;;;18.90;92.60;;;;;;4874356;28;86671;-71
2022/09/10 15:48:50;;;;;;;2.13;0.40;;;19.10;92.40;;;;;;4879585;28;86667;-71
2022/09/10 15:51:21;;;;;;;1.50;0.40;;;19.30;92.10;;;;;;4873952;28;87347;-71
2022/09/10 15:53:52;;;;;;;0.80;0.28;;;19.50;91.80;;;;;;4879673;28;87131;-70
2022/09/10 15:56:19;;;;;;;1.83;0.40;;;19.50;91.60;;;;;;4879703;28;86677;-70
2022/09/10 15:58:53;;;;;;;2.55;0.35;;;19.50;91.30;;;;;;4879342;28;86324;-71
2022/09/10 16:01:20;;;;;;;1.65;0.20;;;19.20;91.30;;;;;;4877881;28;87724;-72
2022/09/10 16:03:50;;;;;;;2.13;0.40;;;18.80;92.40;;;;;;4879130;28;86731;-71
2022/09/10 16:06:18;;;;;;;1.38;0.40;;;18.60;93.10;;;;;;4879836;28;87081;-71
2022/09/10 16:08:59;;;;;;;4.22;0.60;;;18.40;92.90;;;;;;4878686;28;85464;-72
2022/09/10 16:11:25;;;;;;;1.25;0.30;;;18.00;94.60;;;;;;4877239;28;86704;-70